This is the latest recevied weather packets stored in our database for station/object PD2BVG. If no packets are shown the sender has not sent any weather packets the latest 10 day(s).
| Time | Temp. | Humidity | Pressure | Rain* | Wind** | Luminosity | Snow |
|---|---|---|---|---|---|---|---|
| 1788158941 | 16.11° C | 97% | 1008.1 hPa | 1.52 mm | - | 111 W/m² | - |
| 1788158881 | 16.11° C | 97% | 1008.2 hPa | 1.52 mm | - | 93 W/m² | - |
| 1788158821 | 16.11° C | 97% | 1008 hPa | 1.52 mm | - | 162 W/m² | - |
| 1788158761 | 16.11° C | 98% | 1008.2 hPa | 1.52 mm | - | 88 W/m² | - |
| 1788158700 | 16.11° C | 98% | 1008.2 hPa | 1.52 mm | - | 81 W/m² | - |
| 1788158641 | 16.11° C | 98% | 1008.1 hPa | 1.52 mm | - | 81 W/m² | - |
| 1788158581 | 16.11° C | 98% | 1008.1 hPa | 1.52 mm | - | 78 W/m² | - |
| 1788158521 | 16.11° C | 98% | 1008.1 hPa | 1.52 mm | - | 69 W/m² | - |
| 1788158461 | 16.11° C | 98% | 1008.1 hPa | 1.52 mm | - | 63 W/m² | - |
| 1788158400 | 16.11° C | 98% | 1008.1 hPa | 1.52 mm | - | 55 W/m² | - |
| 1788158339 | 16.11° C | 98% | 1008.1 hPa | 1.52 mm | - | 53 W/m² | - |
| 1788158279 | 16.11° C | 98% | 1008.1 hPa | 1.52 mm | - | 49 W/m² | - |
| 1788158219 | 16.11° C | 98% | 1008.2 hPa | 1.52 mm | - | 39 W/m² | - |
| 1788158159 | 16.11° C | 98% | 1008 hPa | 1.52 mm | - | 39 W/m² | - |
| 1788158100 | 16.11° C | 98% | 1008.1 hPa | 1.52 mm | - | 44 W/m² | - |
| 1788158039 | 16.11° C | 98% | 1008.1 hPa | 1.52 mm | - | 41 W/m² | - |
| 1788157979 | 16.11° C | 98% | 1008 hPa | 1.52 mm | - | 34 W/m² | - |
| 1788157919 | 16.11° C | 98% | 1008.1 hPa | 1.52 mm | - | 34 W/m² | - |
| 1788157859 | 16.11° C | 98% | 1008.1 hPa | 1.52 mm | - | 34 W/m² | - |
| 1788157800 | 16.11° C | 98% | 1008.2 hPa | 1.52 mm | - | 35 W/m² | - |
| 1788157739 | 16.11° C | 98% | 1008.2 hPa | 1.52 mm | - | 27 W/m² | - |
| 1788157679 | 16.11° C | 98% | 1008.2 hPa | 1.52 mm | - | 19 W/m² | - |
| 1788157619 | 16.11° C | 98% | 1008.3 hPa | 1.52 mm | - | 19 W/m² | - |
| 1788157559 | 16.11° C | 98% | 1008.3 hPa | 1.52 mm | - | 19 W/m² | - |
| 1788157500 | 16.11° C | 98% | 1008.1 hPa | 1.52 mm | - | 14 W/m² | - |
* Rain latest hour (hover to see other rain measurements)
** Current wind speed in m/s (hover to see current wind gust speed)